createdAt,value
2023-01-27T00:02:16.014Z,100.00
2023-01-27T00:04:47.993Z,100.00
2023-01-27T00:07:19.953Z,100.00
2023-01-27T00:09:51.955Z,100.00
2023-01-27T00:12:50.710Z,100.00
2023-01-27T00:15:22.738Z,100.00
2023-01-27T00:17:54.783Z,100.00
2023-01-27T00:20:46.192Z,100.00
2023-01-27T00:26:27.173Z,100.00
2023-01-27T00:28:59.104Z,100.00
2023-01-27T00:31:49.442Z,100.00
2023-01-27T00:34:21.407Z,100.00
2023-01-27T00:36:53.356Z,100.00
2023-01-27T00:39:25.347Z,100.00
2023-01-27T00:41:57.360Z,100.00
2023-01-27T00:44:31.901Z,100.00
2023-01-27T00:47:04.079Z,100.00
2023-01-27T00:49:36.035Z,100.00
2023-01-27T00:52:07.962Z,100.00
2023-01-27T00:55:00.595Z,100.00
2023-01-27T00:57:32.551Z,100.00
2023-01-27T01:00:31.628Z,100.00
2023-01-27T01:03:03.856Z,100.00
2023-01-27T01:05:35.991Z,100.00
2023-01-27T01:08:07.978Z,100.00
2023-01-27T01:10:40.011Z,100.00
2023-01-27T01:13:12.141Z,100.00
2023-01-27T01:15:44.337Z,100.00
2023-01-27T01:18:16.775Z,100.00
2023-01-27T01:20:49.082Z,100.00
2023-01-27T01:23:21.136Z,100.00
2023-01-27T01:25:57.822Z,100.00
2023-01-27T01:29:02.421Z,100.00
2023-01-27T01:31:34.589Z,100.00
2023-01-27T01:34:06.654Z,100.00
2023-01-27T01:36:38.600Z,100.00
2023-01-27T01:39:10.599Z,100.00
2023-01-27T01:42:00.995Z,100.00
2023-01-27T01:44:33.260Z,100.00
2023-01-27T01:47:05.277Z,100.00
2023-01-27T01:49:40.306Z,100.00
2023-01-27T01:52:18.804Z,100.00
2023-01-27T01:54:55.120Z,100.00
2023-01-27T01:57:33.504Z,100.00
2023-01-27T02:00:09.759Z,99.50
2023-01-27T02:02:43.434Z,99.75
2023-01-27T02:05:24.579Z,99.53
2023-01-27T02:08:20.642Z,99.29
2023-01-27T02:10:54.555Z,99.34
2023-01-27T02:13:26.552Z,99.33
2023-01-27T02:15:58.595Z,99.98
2023-01-27T02:18:31.047Z,100.00
2023-01-27T02:21:04.589Z,100.00
2023-01-27T02:23:44.499Z,100.00
2023-01-27T02:26:23.627Z,100.00
2023-01-27T02:29:08.955Z,100.00
2023-01-27T02:31:41.799Z,100.00
2023-01-27T02:34:18.010Z,100.00
2023-01-27T02:36:57.421Z,100.00
2023-01-27T02:40:03.616Z,100.00
2023-01-27T02:42:35.571Z,100.00
2023-01-27T02:45:08.205Z,100.00
2023-01-27T02:47:41.698Z,100.00
2023-01-27T02:50:13.728Z,100.00
2023-01-27T02:52:45.705Z,100.00
2023-01-27T02:55:17.752Z,100.00
2023-01-27T02:57:49.726Z,100.00
2023-01-27T03:00:21.787Z,100.00
2023-01-27T03:03:32.810Z,100.00
2023-01-27T03:06:04.914Z,100.00
2023-01-27T03:08:37.168Z,100.00
2023-01-27T03:11:50.088Z,100.00
2023-01-27T03:14:22.218Z,100.00
2023-01-27T03:17:12.600Z,100.00
2023-01-27T03:20:01.626Z,100.00
2023-01-27T03:22:33.625Z,100.00
2023-01-27T03:25:06.457Z,100.00
2023-01-27T03:27:38.419Z,100.00
2023-01-27T03:30:11.643Z,100.00
2023-01-27T03:32:46.895Z,100.00
2023-01-27T03:35:19.134Z,100.00
2023-01-27T03:38:09.358Z,100.00
2023-01-27T03:41:40.679Z,100.00
2023-01-27T03:44:31.212Z,100.00
2023-01-27T03:47:03.771Z,100.00
2023-01-27T03:49:35.708Z,100.00
2023-01-27T03:52:32.587Z,100.00
2023-01-27T03:55:04.894Z,100.00
2023-01-27T03:57:38.307Z,100.00
2023-01-27T04:00:11.337Z,100.00
2023-01-27T05:31:47.461Z,100.00
2023-01-27T05:34:19.419Z,100.00
2023-01-27T05:36:52.062Z,100.00
2023-01-27T05:39:24.233Z,100.00
2023-01-27T05:41:56.429Z,100.00
2023-01-27T05:44:28.422Z,100.00
2023-01-27T05:47:00.419Z,100.00
2023-01-27T05:49:50.829Z,100.00
2023-01-27T05:52:22.812Z,100.00
2023-01-27T05:54:54.780Z,100.00
2023-01-27T05:57:26.783Z,100.00
2023-01-27T05:59:58.715Z,100.00
2023-01-27T06:02:30.756Z,100.00
2023-01-27T06:05:02.779Z,100.00
2023-01-27T06:07:34.750Z,100.00
2023-01-27T06:10:07.417Z,100.00
2023-01-27T06:12:39.351Z,100.00
2023-01-27T06:15:12.011Z,100.00
2023-01-27T06:17:55.038Z,100.00
2023-01-27T06:20:27.077Z,100.00
2023-01-27T06:22:59.195Z,100.00
2023-01-27T06:25:35.658Z,100.00
2023-01-27T06:28:10.783Z,100.00
2023-01-27T06:30:44.916Z,100.00
2023-01-27T06:33:17.105Z,100.00
2023-01-27T06:35:49.239Z,100.00
2023-01-27T06:38:21.794Z,100.00
2023-01-27T06:40:53.772Z,100.00
2023-01-27T06:43:25.911Z,100.00
2023-01-27T06:45:58.097Z,100.00
2023-01-27T06:48:30.793Z,100.00
2023-01-27T06:51:02.842Z,100.00
2023-01-27T06:53:37.474Z,100.00
2023-01-27T06:56:09.588Z,100.00
2023-01-27T06:58:42.786Z,100.00
2023-01-27T07:01:14.829Z,100.00
2023-01-27T07:03:46.927Z,100.00
2023-01-27T07:08:57.705Z,100.00
2023-01-27T07:11:29.677Z,100.00
2023-01-27T07:14:03.070Z,100.00
2023-01-27T07:16:35.137Z,100.00
2023-01-27T07:19:07.526Z,100.00
2023-01-27T07:21:39.974Z,100.00
2023-01-27T07:24:12.003Z,100.00
2023-01-27T07:26:48.225Z,100.00
2023-01-27T07:29:20.448Z,100.00
2023-01-27T07:31:52.494Z,100.00
2023-01-27T07:34:24.615Z,100.00
2023-01-27T07:37:53.267Z,100.00
2023-01-27T07:40:25.503Z,100.00
2023-01-27T07:43:02.358Z,100.00
2023-01-27T07:45:34.415Z,100.00
2023-01-27T07:48:24.197Z,100.00
2023-01-27T07:50:56.189Z,100.00
2023-01-27T07:53:28.432Z,100.00
2023-01-27T07:56:00.876Z,100.00
2023-01-27T07:58:54.229Z,100.00
2023-01-27T08:01:26.222Z,100.00
2023-01-27T08:04:02.302Z,100.00
2023-01-27T08:06:34.268Z,100.00
2023-01-27T08:09:07.013Z,100.00
2023-01-27T08:11:40.514Z,100.00
2023-01-27T08:14:12.614Z,100.00
2023-01-27T08:16:44.628Z,100.00
2023-01-27T08:19:16.757Z,100.00
2023-01-27T08:21:48.713Z,100.00
2023-01-27T08:24:20.704Z,100.00
2023-01-27T08:26:52.730Z,100.00
2023-01-27T08:29:25.016Z,100.00
2023-01-27T08:31:59.080Z,100.00
2023-01-27T08:34:31.151Z,100.00
2023-01-27T08:37:04.824Z,100.00
2023-01-27T08:39:36.839Z,100.00
2023-01-27T08:42:08.962Z,100.00
2023-01-27T08:44:40.946Z,100.00
2023-01-27T08:47:13.018Z,100.00
2023-01-27T08:49:46.132Z,100.00
2023-01-27T08:52:18.289Z,100.00
2023-01-27T08:54:51.403Z,100.00
2023-01-27T08:57:24.843Z,100.00
2023-01-27T08:59:56.939Z,100.00
2023-01-27T09:02:28.986Z,99.32
2023-01-27T09:05:01.195Z,99.04
2023-01-27T09:07:34.226Z,99.07
2023-01-27T09:10:14.464Z,98.34
2023-01-27T09:12:47.360Z,98.51
2023-01-27T09:15:19.422Z,98.74
2023-01-27T09:17:53.946Z,98.74
2023-01-27T09:20:26.199Z,98.80
2023-01-27T09:22:59.423Z,98.83
2023-01-27T09:25:32.107Z,98.01
2023-01-27T09:28:04.129Z,98.31
2023-01-27T09:30:40.926Z,97.63
2023-01-27T09:33:17.576Z,97.90
2023-01-27T09:36:15.706Z,96.99
2023-01-27T09:39:03.399Z,97.03
2023-01-27T09:41:55.448Z,95.61
2023-01-27T09:45:32.898Z,96.49
2023-01-27T09:48:24.831Z,96.42
2023-01-27T09:51:34.216Z,94.91
2023-01-27T09:54:39.821Z,95.28
2023-01-27T09:57:32.189Z,94.97
2023-01-27T10:01:03.606Z,93.39
2023-01-27T10:04:22.820Z,91.41
2023-01-27T10:07:24.544Z,91.34
2023-01-27T10:10:53.329Z,91.19
2023-01-27T10:13:46.407Z,90.39
2023-01-27T10:16:55.241Z,90.21
2023-01-27T10:19:30.040Z,90.01
2023-01-27T10:22:13.915Z,91.33
2023-01-27T10:24:57.300Z,91.69
2023-01-27T10:27:37.500Z,90.21
2023-01-27T10:30:22.295Z,87.99
2023-01-27T10:33:15.245Z,88.00
2023-01-27T10:36:00.448Z,87.85
2023-01-27T10:39:07.459Z,87.41
2023-01-27T10:41:57.170Z,87.76
2023-01-27T10:45:09.799Z,86.79
2023-01-27T10:48:38.527Z,85.91
2023-01-27T10:51:22.011Z,85.74
2023-01-27T10:54:10.316Z,84.04
2023-01-27T10:56:59.897Z,83.17
2023-01-27T11:00:17.395Z,82.28
2023-01-27T11:03:28.474Z,82.69
2023-01-27T11:06:08.471Z,83.15
2023-01-27T11:08:46.459Z,82.18
2023-01-27T11:11:43.504Z,81.99
2023-01-27T11:14:32.394Z,81.82
2023-01-27T11:17:15.696Z,80.57
2023-01-27T11:20:06.687Z,79.78
2023-01-27T11:23:11.114Z,80.47
2023-01-27T11:26:28.912Z,81.19
2023-01-27T11:29:24.207Z,81.87
2023-01-27T11:32:19.249Z,81.21
2023-01-27T11:35:10.678Z,82.44
2023-01-27T11:38:15.015Z,82.50
2023-01-27T11:40:52.339Z,83.43
2023-01-27T11:43:30.354Z,82.27
2023-01-27T11:46:06.126Z,81.26
2023-01-27T11:48:47.693Z,80.30
2023-01-27T11:52:27.077Z,80.40
2023-01-27T11:55:14.328Z,81.45
2023-01-27T12:01:36.849Z,82.42
2023-01-27T12:04:46.488Z,82.99
2023-01-27T12:08:23.252Z,81.72
2023-01-27T12:10:55.241Z,82.49
2023-01-27T12:13:51.150Z,83.86
2023-01-27T12:16:29.960Z,83.73
2023-01-27T12:19:28.144Z,83.80
2023-01-27T12:22:07.195Z,83.96
2023-01-27T12:24:46.861Z,84.13
2023-01-27T12:28:24.057Z,84.55
2023-01-27T12:31:06.297Z,84.38
2023-01-27T12:33:45.993Z,84.94
2023-01-27T12:39:57.078Z,84.69
2023-01-27T12:42:38.488Z,85.01
2023-01-27T12:45:23.914Z,84.38
2023-01-27T12:48:30.786Z,85.50
2023-01-27T12:51:15.046Z,85.40
2023-01-27T12:54:38.506Z,85.48
2023-01-27T12:57:18.385Z,85.26
2023-01-27T12:59:57.463Z,84.91
2023-01-27T13:02:33.877Z,84.76
2023-01-27T13:05:08.336Z,83.75
2023-01-27T13:07:47.137Z,84.13
2023-01-27T13:10:24.901Z,83.34
2023-01-27T13:12:59.682Z,82.22
2023-01-27T13:15:32.399Z,82.91
2023-01-27T13:18:55.822Z,83.33
2023-01-27T13:21:39.871Z,82.88
2023-01-27T13:24:21.768Z,83.90
2023-01-27T13:26:55.252Z,84.46
2023-01-27T13:29:33.546Z,81.90
2023-01-27T13:32:18.083Z,83.26
2023-01-27T13:34:59.256Z,84.28
2023-01-27T13:38:52.810Z,84.89
2023-01-27T13:41:41.656Z,84.34
2023-01-27T13:44:41.829Z,83.72
2023-01-27T13:47:27.130Z,82.85
2023-01-27T13:50:20.814Z,83.18
2023-01-27T13:53:00.118Z,83.62
2023-01-27T13:55:56.792Z,82.54
2023-01-27T13:58:53.363Z,82.95
2023-01-27T14:02:26.097Z,83.25
2023-01-27T14:06:04.153Z,83.81
2023-01-27T14:09:52.480Z,82.85
2023-01-27T14:13:00.009Z,82.63
2023-01-27T14:16:22.742Z,83.08
2023-01-27T14:19:10.415Z,85.19
2023-01-27T14:22:42.016Z,83.88
2023-01-27T14:25:25.648Z,83.75
2023-01-27T14:28:10.841Z,83.80
2023-01-27T14:31:24.902Z,83.38
2023-01-27T14:34:51.504Z,84.27
2023-01-27T14:37:52.970Z,84.68
2023-01-27T14:41:12.336Z,86.03
2023-01-27T14:43:59.844Z,85.95
2023-01-27T14:46:54.717Z,86.10
2023-01-27T14:49:49.739Z,86.49
2023-01-27T14:53:05.946Z,84.51
2023-01-27T14:55:57.419Z,85.63
2023-01-27T14:58:54.833Z,85.80
2023-01-27T15:01:46.163Z,85.58
2023-01-27T15:05:13.885Z,85.79
2023-01-27T15:08:21.388Z,84.48
2023-01-27T15:11:33.347Z,83.86
2023-01-27T15:14:26.884Z,84.80
2023-01-27T15:17:29.704Z,84.23
2023-01-27T15:21:15.569Z,83.07
2023-01-27T15:24:07.063Z,83.32
2023-01-27T15:26:40.363Z,84.20
2023-01-27T15:29:16.259Z,83.71
2023-01-27T15:32:13.337Z,83.90
2023-01-27T15:34:54.037Z,84.86
2023-01-27T15:37:30.737Z,85.62
2023-01-27T15:40:13.333Z,85.39
2023-01-27T15:43:00.592Z,84.63
2023-01-27T15:45:38.070Z,84.48
2023-01-27T15:48:23.236Z,83.65
2023-01-27T15:51:06.979Z,83.73
2023-01-27T15:53:46.208Z,82.86
2023-01-27T15:56:18.468Z,82.13
2023-01-27T16:02:25.594Z,81.33
2023-01-27T16:05:15.463Z,79.83
2023-01-27T16:07:53.586Z,80.77
2023-01-27T16:10:32.181Z,81.12
2023-01-27T16:13:30.252Z,80.68
2023-01-27T16:16:17.912Z,80.84
2023-01-27T16:19:12.262Z,81.05
2023-01-27T16:21:53.330Z,80.40
2023-01-27T16:24:51.044Z,81.27
2023-01-27T16:27:56.101Z,81.43
2023-01-27T16:31:13.926Z,80.21
2023-01-27T16:34:14.554Z,81.02
2023-01-27T16:36:47.373Z,80.69
2023-01-27T16:39:31.505Z,80.61
2023-01-27T16:42:04.587Z,80.39
2023-01-27T16:44:47.624Z,81.01
2023-01-27T16:47:30.757Z,79.31
2023-01-27T16:50:03.060Z,78.84
2023-01-27T16:52:42.172Z,77.68
2023-01-27T16:55:22.220Z,79.03
2023-01-27T16:57:56.299Z,79.84
2023-01-27T17:00:33.101Z,79.49
2023-01-27T17:03:14.939Z,79.57
2023-01-27T17:05:52.592Z,79.24
2023-01-27T17:08:30.644Z,79.02
2023-01-27T17:11:17.719Z,78.83
2023-01-27T17:14:06.414Z,76.59
2023-01-27T17:16:45.556Z,76.54
2023-01-27T17:19:27.732Z,75.74
2023-01-27T17:22:03.334Z,75.77
2023-01-27T17:24:50.044Z,75.24
2023-01-27T17:31:37.391Z,76.67
2023-01-27T17:34:17.649Z,77.16
2023-01-27T17:37:36.651Z,77.34
2023-01-27T17:41:10.237Z,77.32
2023-01-27T17:43:44.772Z,75.84
2023-01-27T17:46:21.701Z,75.40
2023-01-27T17:49:16.717Z,76.29
2023-01-27T17:51:51.846Z,76.16
2023-01-27T17:54:30.507Z,76.53
2023-01-27T17:57:23.841Z,76.20
2023-01-27T18:41:42.001Z,73.70
2023-01-27T18:44:36.004Z,73.71
2023-01-27T18:58:06.648Z,73.71
2023-01-27T19:05:45.329Z,73.43
2023-01-27T19:20:45.312Z,71.95
2023-01-27T20:05:15.557Z,74.03
2023-01-27T21:48:56.381Z,73.12
2023-01-27T23:11:41.064Z,70.52
2023-01-27T23:50:28.461Z,68.21
